createdAt,value
2022-12-29T00:08:21.699Z,7.2
2022-12-29T00:24:04.078Z,7.28
2022-12-29T00:39:46.531Z,7.43
2022-12-29T00:55:28.979Z,7.53
2022-12-29T01:11:11.802Z,7.58
2022-12-29T01:26:54.440Z,7.65
2022-12-29T01:42:37.538Z,7.7
2022-12-29T01:58:20.332Z,7.79
2022-12-29T02:14:02.970Z,7.69
2022-12-29T02:29:45.892Z,7.77
2022-12-29T02:45:29.185Z,7.91
2022-12-29T03:01:11.540Z,8.14
2022-12-29T03:16:54.808Z,8.26
2022-12-29T03:32:37.634Z,8.42
2022-12-29T03:48:20.513Z,8.52
2022-12-29T04:04:03.184Z,8.6
2022-12-29T04:19:45.722Z,8.67
2022-12-29T04:35:28.176Z,8.82
2022-12-29T04:51:10.607Z,8.92
2022-12-29T05:06:53.623Z,8.95
2022-12-29T05:22:36.351Z,8.97
2022-12-29T05:38:19.250Z,9.01
2022-12-29T05:54:01.896Z,9.1
2022-12-29T06:09:44.071Z,9.22
2022-12-29T06:25:26.743Z,9.34
2022-12-29T06:41:09.545Z,9.46
2022-12-29T06:56:52.336Z,9.54
2022-12-29T07:12:34.381Z,9.49
2022-12-29T07:28:17.486Z,9.31
2022-12-29T07:44:00.118Z,9.34
2022-12-29T07:59:43.009Z,9.54
2022-12-29T08:15:25.642Z,9.84
2022-12-29T08:31:08.590Z,10.12
2022-12-29T08:46:51.442Z,10.21
2022-12-29T09:02:34.060Z,10.18
2022-12-29T09:18:16.942Z,10.49
2022-12-29T09:34:00.238Z,10.96
2022-12-29T09:49:42.620Z,11.71
2022-12-29T10:05:25.417Z,12.33
2022-12-29T10:21:07.594Z,13.26
2022-12-29T10:36:49.589Z,13.64
2022-12-29T10:52:32.412Z,13.21
2022-12-29T11:08:14.583Z,13.06
2022-12-29T11:23:57.175Z,12.74
2022-12-29T11:24:44.460Z,12.88
2022-12-29T11:40:27.614Z,12.15
2022-12-29T11:56:10.460Z,11.44
2022-12-29T12:11:53.525Z,10.69
2022-12-29T12:27:36.517Z,10.12
2022-12-29T12:43:19.292Z,9.68
2022-12-29T12:59:02.348Z,9.43
2022-12-29T13:14:45.582Z,9.46
2022-12-29T13:30:28.759Z,9.62
2022-12-29T13:46:11.766Z,9.56
2022-12-29T14:01:54.483Z,9.45
2022-12-29T14:17:37.023Z,9.35
2022-12-29T14:33:19.679Z,9.17
2022-12-29T14:49:02.501Z,9.18
2022-12-29T15:04:44.788Z,9.16
2022-12-29T15:20:27.741Z,9.22
2022-12-29T15:36:10.451Z,9.5
2022-12-29T15:51:53.429Z,9.51
2022-12-29T16:07:36.324Z,9.34
2022-12-29T16:23:19.086Z,9.21
2022-12-29T16:39:01.663Z,9.14
2022-12-29T16:54:44.425Z,9
2022-12-29T17:10:27.246Z,8.85
2022-12-29T17:26:09.788Z,8.71
2022-12-29T17:41:52.085Z,8.74
2022-12-29T17:57:35.062Z,9.14
2022-12-29T18:13:18.262Z,9.14
2022-12-29T18:29:00.669Z,8.79
2022-12-29T18:44:43.443Z,8.38
2022-12-29T19:00:26.676Z,8.22
2022-12-29T19:16:09.144Z,8.37
2022-12-29T19:31:51.433Z,8.49
2022-12-29T19:47:34.652Z,8.42
2022-12-29T20:03:17.566Z,8.38
2022-12-29T20:18:59.949Z,8.41
2022-12-29T20:50:24.875Z,8.34
2022-12-29T21:06:08.033Z,8.58
2022-12-29T21:21:50.431Z,8.64
2022-12-29T21:37:33.401Z,8.51
2022-12-29T21:53:15.696Z,8.47
2022-12-29T22:08:58.855Z,8.24
2022-12-29T22:24:41.722Z,7.91
2022-12-29T22:40:24.098Z,7.51
2022-12-29T22:56:06.473Z,7.27
2022-12-29T23:11:49.148Z,7.13
2022-12-29T23:27:32.443Z,7.09
2022-12-29T23:43:15.078Z,7.16
2022-12-29T23:58:58.079Z,7.24
